sensor_id;sensor_type;location;lat;lon;timestamp;pressure;altitude;pressure_sealevel;temperature;humidity
6524;BME280;3295;38.928;-77.052;2023-01-30T00:01:56;101467.09;;;12.39;100.00
6524;BME280;3295;38.928;-77.052;2023-01-30T00:04:25;101476.19;;;12.34;100.00
6524;BME280;3295;38.928;-77.052;2023-01-30T00:06:53;101486.59;;;12.37;100.00
6524;BME280;3295;38.928;-77.052;2023-01-30T00:09:25;101502.88;;;12.23;100.00
6524;BME280;3295;38.928;-77.052;2023-01-30T00:11:55;101514.38;;;12.31;100.00
6524;BME280;3295;38.928;-77.052;2023-01-30T00:14:23;101511.63;;;12.42;100.00
6524;BME280;3295;38.928;-77.052;2023-01-30T00:16:51;101522.88;;;12.46;100.00
6524;BME280;3295;38.928;-77.052;2023-01-30T00:19:19;101507.69;;;12.49;100.00
6524;BME280;3295;38.928;-77.052;2023-01-30T00:21:47;101503.38;;;12.48;100.00
6524;BME280;3295;38.928;-77.052;2023-01-30T00:24:17;101507.06;;;12.37;100.00
6524;BME280;3295;38.928;-77.052;2023-01-30T00:26:45;101524.16;;;12.38;100.00
6524;BME280;3295;38.928;-77.052;2023-01-30T00:29:14;101522.66;;;12.41;100.00
6524;BME280;3295;38.928;-77.052;2023-01-30T00:31:42;101522.88;;;12.46;100.00
6524;BME280;3295;38.928;-77.052;2023-01-30T00:34:10;101522.88;;;12.46;100.00
6524;BME280;3295;38.928;-77.052;2023-01-30T00:36:38;101523.63;;;12.43;100.00
6524;BME280;3295;38.928;-77.052;2023-01-30T00:39:06;101525.22;;;12.41;100.00
6524;BME280;3295;38.928;-77.052;2023-01-30T00:41:34;101518.41;;;12.42;100.00
6524;BME280;3295;38.928;-77.052;2023-01-30T00:44:16;101520.81;;;12.39;100.00
6524;BME280;3295;38.928;-77.052;2023-01-30T00:47:01;101529.75;;;12.31;100.00
6524;BME280;3295;38.928;-77.052;2023-01-30T00:49:33;101530.00;;;12.35;100.00
6524;BME280;3295;38.928;-77.052;2023-01-30T00:52:02;101536.16;;;12.39;100.00
6524;BME280;3295;38.928;-77.052;2023-01-30T00:54:30;101525.94;;;12.39;100.00
6524;BME280;3295;38.928;-77.052;2023-01-30T00:56:58;101530.88;;;12.36;100.00
6524;BME280;3295;38.928;-77.052;2023-01-30T00:59:27;101540.63;;;12.27;100.00
6524;BME280;3295;38.928;-77.052;2023-01-30T01:01:55;101542.25;;;12.41;100.00
6524;BME280;3295;38.928;-77.052;2023-01-30T01:04:23;101538.22;;;12.46;100.00
6524;BME280;3295;38.928;-77.052;2023-01-30T01:06:51;101548.63;;;12.49;100.00
6524;BME280;3295;38.928;-77.052;2023-01-30T01:09:22;101541.03;;;12.51;100.00
6524;BME280;3295;38.928;-77.052;2023-01-30T01:11:50;101519.69;;;12.50;100.00
6524;BME280;3295;38.928;-77.052;2023-01-30T01:14:18;101520.22;;;12.44;100.00
6524;BME280;3295;38.928;-77.052;2023-01-30T01:16:47;101524.47;;;12.44;100.00
6524;BME280;3295;38.928;-77.052;2023-01-30T01:19:15;101533.13;;;12.46;100.00
6524;BME280;3295;38.928;-77.052;2023-01-30T01:21:43;101518.72;;;12.48;100.00
6524;BME280;3295;38.928;-77.052;2023-01-30T01:24:12;101522.06;;;12.47;100.00
6524;BME280;3295;38.928;-77.052;2023-01-30T01:26:41;101529.59;;;12.44;100.00
6524;BME280;3295;38.928;-77.052;2023-01-30T01:29:11;101528.56;;;12.40;100.00
6524;BME280;3295;38.928;-77.052;2023-01-30T01:31:40;101525.13;;;12.40;100.00
6524;BME280;3295;38.928;-77.052;2023-01-30T01:34:10;101525.84;;;12.37;100.00
6524;BME280;3295;38.928;-77.052;2023-01-30T01:36:38;101524.16;;;12.38;100.00
6524;BME280;3295;38.928;-77.052;2023-01-30T01:39:07;101536.16;;;12.39;100.00
6524;BME280;3295;38.928;-77.052;2023-01-30T01:41:35;101538.81;;;12.40;100.00
6524;BME280;3295;38.928;-77.052;2023-01-30T01:44:04;101542.16;;;12.39;100.00
6524;BME280;3295;38.928;-77.052;2023-01-30T01:46:35;101537.75;;;12.37;100.00
6524;BME280;3295;38.928;-77.052;2023-01-30T01:49:10;101543.56;;;12.34;100.00
6524;BME280;3295;38.928;-77.052;2023-01-30T01:51:46;101540.94;;;12.33;100.00
6524;BME280;3295;38.928;-77.052;2023-01-30T01:54:19;101528.94;;;12.32;100.00
6524;BME280;3295;38.928;-77.052;2023-01-30T01:56:50;101531.41;;;12.30;100.00
6524;BME280;3295;38.928;-77.052;2023-01-30T01:59:23;101530.41;;;12.27;100.00
6524;BME280;3295;38.928;-77.052;2023-01-30T02:01:54;101535.59;;;12.28;100.00
6524;BME280;3295;38.928;-77.052;2023-01-30T02:04:23;101537.97;;;12.25;100.00
6524;BME280;3295;38.928;-77.052;2023-01-30T02:07:07;101549.41;;;12.16;100.00
6524;BME280;3295;38.928;-77.052;2023-01-30T02:09:36;101551.97;;;12.16;100.00
6524;BME280;3295;38.928;-77.052;2023-01-30T02:12:05;101549.53;;;12.19;100.00
6524;BME280;3295;38.928;-77.052;2023-01-30T02:14:33;101543.47;;;12.17;100.00
6524;BME280;3295;38.928;-77.052;2023-01-30T02:17:02;101534.47;;;12.23;100.00
6524;BME280;3295;38.928;-77.052;2023-01-30T02:19:34;101535.69;;;12.30;100.00
6524;BME280;3295;38.928;-77.052;2023-01-30T02:22:21;101551.66;;;12.26;100.00
6524;BME280;3295;38.928;-77.052;2023-01-30T02:25:11;101553.41;;;12.27;100.00
6524;BME280;3295;38.928;-77.052;2023-01-30T02:28:03;101554.13;;;12.24;100.00
6524;BME280;3295;38.928;-77.052;2023-01-30T02:31:09;101550.78;;;12.25;100.00
6524;BME280;3295;38.928;-77.052;2023-01-30T02:33:51;101542.22;;;12.25;100.00
6524;BME280;3295;38.928;-77.052;2023-01-30T02:36:30;101545.41;;;12.21;100.00
6524;BME280;3295;38.928;-77.052;2023-01-30T02:39:05;101547.63;;;12.15;100.00
6524;BME280;3295;38.928;-77.052;2023-01-30T02:41:45;101544.28;;;12.16;100.00
6524;BME280;3295;38.928;-77.052;2023-01-30T02:44:20;101536.75;;;12.19;100.00
6524;BME280;3295;38.928;-77.052;2023-01-30T02:46:54;101531.81;;;12.22;100.00
6524;BME280;3295;38.928;-77.052;2023-01-30T02:49:29;101536.75;;;12.19;100.00
6524;BME280;3295;38.928;-77.052;2023-01-30T02:52:00;101538.53;;;12.20;100.00
6524;BME280;3295;38.928;-77.052;2023-01-30T02:54:29;101535.16;;;12.21;100.00
6524;BME280;3295;38.928;-77.052;2023-01-30T02:56:58;101534.28;;;12.20;100.00
6524;BME280;3295;38.928;-77.052;2023-01-30T02:59:29;101534.28;;;12.20;100.00
6524;BME280;3295;38.928;-77.052;2023-01-30T03:02:25;101533.97;;;12.14;100.00
6524;BME280;3295;38.928;-77.052;2023-01-30T03:05:14;101540.84;;;12.15;100.00
6524;BME280;3295;38.928;-77.052;2023-01-30T03:07:49;101546.84;;;12.16;100.00
6524;BME280;3295;38.928;-77.052;2023-01-30T03:10:27;101541.72;;;12.16;100.00
6524;BME280;3295;38.928;-77.052;2023-01-30T03:13:03;101546.66;;;12.13;100.00
6524;BME280;3295;38.928;-77.052;2023-01-30T03:15:35;101539.63;;;12.08;100.00
6524;BME280;3295;38.928;-77.052;2023-01-30T03:18:08;101530.97;;;12.06;100.00
6524;BME280;3295;38.928;-77.052;2023-01-30T03:20:37;101547.91;;;12.04;100.00
6524;BME280;3295;38.928;-77.052;2023-01-30T03:23:06;101539.44;;;12.05;100.00
6524;BME280;3295;38.928;-77.052;2023-01-30T03:25:35;101546.09;;;12.02;100.00
6524;BME280;3295;38.928;-77.052;2023-01-30T03:28:05;101546.16;;;12.03;100.00
6524;BME280;3295;38.928;-77.052;2023-01-30T03:30:33;101543.59;;;12.03;100.00
6524;BME280;3295;38.928;-77.052;2023-01-30T03:37:03;101540.91;;;12.00;100.00
6524;BME280;3295;38.928;-77.052;2023-01-30T03:39:34;101542.22;;;11.94;100.00
6524;BME280;3295;38.928;-77.052;2023-01-30T03:42:03;101543.56;;;11.87;100.00
6524;BME280;3295;38.928;-77.052;2023-01-30T03:44:31;101541.97;;;11.89;100.00
6524;BME280;3295;38.928;-77.052;2023-01-30T03:46:59;101545.34;;;11.88;100.00
6524;BME280;3295;38.928;-77.052;2023-01-30T03:49:27;101545.16;;;11.85;100.00
6524;BME280;3295;38.928;-77.052;2023-01-30T03:51:54;101533.50;;;11.90;100.00
6524;BME280;3295;38.928;-77.052;2023-01-30T03:54:24;101543.00;;;11.93;100.00
6524;BME280;3295;38.928;-77.052;2023-01-30T03:56:52;101537.03;;;11.92;100.00
6524;BME280;3295;38.928;-77.052;2023-01-30T03:59:20;101531.28;;;11.96;100.00
6524;BME280;3295;38.928;-77.052;2023-01-30T04:01:48;101526.78;;;11.92;100.00
6524;BME280;3295;38.928;-77.052;2023-01-30T04:04:15;101528.38;;;11.90;100.00
6524;BME280;3295;38.928;-77.052;2023-01-30T04:06:43;101535.25;;;11.91;100.00
6524;BME280;3295;38.928;-77.052;2023-01-30T04:09:11;101531.38;;;11.98;100.00
6524;BME280;3295;38.928;-77.052;2023-01-30T04:11:41;101534.19;;;12.02;100.00
6524;BME280;3295;38.928;-77.052;2023-01-30T04:14:08;101533.50;;;11.90;100.00
6524;BME280;3295;38.928;-77.052;2023-01-30T04:16:36;101520.75;;;11.75;100.00
6524;BME280;3295;38.928;-77.052;2023-01-30T04:19:04;101522.50;;;11.62;100.00
6524;BME280;3295;38.928;-77.052;2023-01-30T04:21:32;101531.59;;;11.57;100.00
6524;BME280;3295;38.928;-77.052;2023-01-30T04:24:01;101513.22;;;11.48;100.00
6524;BME280;3295;38.928;-77.052;2023-01-30T04:26:29;101507.13;;;11.46;100.00
6524;BME280;3295;38.928;-77.052;2023-01-30T04:28:59;101501.66;;;11.39;100.00
6524;BME280;3295;38.928;-77.052;2023-01-30T04:31:27;101504.13;;;11.38;100.00
6524;BME280;3295;38.928;-77.052;2023-01-30T04:33:56;101510.91;;;11.37;100.00
6524;BME280;3295;38.928;-77.052;2023-01-30T04:36:25;101506.78;;;11.39;100.00
6524;BME280;3295;38.928;-77.052;2023-01-30T04:38:54;101516.47;;;11.45;100.00
6524;BME280;3295;38.928;-77.052;2023-01-30T04:41:23;101524.22;;;11.47;100.00
6524;BME280;3295;38.928;-77.052;2023-01-30T04:43:52;101531.44;;;11.54;100.00
6524;BME280;3295;38.928;-77.052;2023-01-30T04:46:21;101535.84;;;11.56;100.00
6524;BME280;3295;38.928;-77.052;2023-01-30T04:48:50;101519.81;;;11.59;100.00
6524;BME280;3295;38.928;-77.052;2023-01-30T04:51:20;101518.28;;;11.62;100.00
6524;BME280;3295;38.928;-77.052;2023-01-30T04:53:48;101507.47;;;11.52;100.00
6524;BME280;3295;38.928;-77.052;2023-01-30T04:56:16;101514.91;;;11.32;100.00
6524;BME280;3295;38.928;-77.052;2023-01-30T04:58:44;101515.78;;;11.03;100.00
6524;BME280;3295;38.928;-77.052;2023-01-30T05:01:15;101516.81;;;10.92;100.00
6524;BME280;3295;38.928;-77.052;2023-01-30T05:03:49;101521.56;;;10.86;100.00
6524;BME280;3295;38.928;-77.052;2023-01-30T05:06:18;101507.13;;;10.87;100.00
6524;BME280;3295;38.928;-77.052;2023-01-30T05:08:47;101501.84;;;10.84;100.00
6524;BME280;3295;38.928;-77.052;2023-01-30T05:11:15;101511.00;;;10.95;100.00
6524;BME280;3295;38.928;-77.052;2023-01-30T05:13:44;101517.06;;;10.97;100.00
6524;BME280;3295;38.928;-77.052;2023-01-30T05:16:13;101523.50;;;10.90;100.00
6524;BME280;3295;38.928;-77.052;2023-01-30T05:18:42;101523.94;;;10.98;100.00
6524;BME280;3295;38.928;-77.052;2023-01-30T05:21:13;101519.81;;;11.00;100.00
6524;BME280;3295;38.928;-77.052;2023-01-30T05:23:42;101521.84;;;10.91;100.00
6524;BME280;3295;38.928;-77.052;2023-01-30T05:26:11;101525.78;;;10.86;100.00
6524;BME280;3295;38.928;-77.052;2023-01-30T05:28:40;101525.59;;;10.83;100.00
6524;BME280;3295;38.928;-77.052;2023-01-30T05:31:10;101522.06;;;10.81;100.00
6524;BME280;3295;38.928;-77.052;2023-01-30T05:33:39;101517.50;;;10.75;100.00
6524;BME280;3295;38.928;-77.052;2023-01-30T05:36:15;101523.72;;;10.65;100.00
6524;BME280;3295;38.928;-77.052;2023-01-30T05:38:44;101527.22;;;10.67;100.00
6524;BME280;3295;38.928;-77.052;2023-01-30T05:41:14;101523.47;;;10.76;100.00
6524;BME280;3295;38.928;-77.052;2023-01-30T05:43:42;101507.53;;;10.80;100.00
6524;BME280;3295;38.928;-77.052;2023-01-30T05:46:11;101494.25;;;10.71;100.00
6524;BME280;3295;38.928;-77.052;2023-01-30T05:48:39;101493.72;;;10.61;100.00
6524;BME280;3295;38.928;-77.052;2023-01-30T05:51:16;101499.31;;;10.56;100.00
6524;BME280;3295;38.928;-77.052;2023-01-30T05:53:45;101502.66;;;10.55;100.00
6524;BME280;3295;38.928;-77.052;2023-01-30T05:56:13;101500.59;;;10.62;100.00
6524;BME280;3295;38.928;-77.052;2023-01-30T05:58:41;101488.38;;;10.72;100.00
6524;BME280;3295;38.928;-77.052;2023-01-30T06:01:12;101476.31;;;10.84;100.00
6524;BME280;3295;38.928;-77.052;2023-01-30T06:03:40;101471.13;;;10.82;100.00
6524;BME280;3295;38.928;-77.052;2023-01-30T06:06:09;101481.00;;;10.76;100.00
6524;BME280;3295;38.928;-77.052;2023-01-30T06:08:40;101481.69;;;10.74;100.00
6524;BME280;3295;38.928;-77.052;2023-01-30T06:11:09;101491.06;;;10.60;100.00
6524;BME280;3295;38.928;-77.052;2023-01-30T06:13:38;101498.44;;;10.55;100.00
6524;BME280;3295;38.928;-77.052;2023-01-30T06:16:08;101488.81;;;10.64;100.00
6524;BME280;3295;38.928;-77.052;2023-01-30T06:18:36;101502.88;;;10.73;100.00
6524;BME280;3295;38.928;-77.052;2023-01-30T06:21:05;101484.75;;;10.83;100.00
6524;BME280;3295;38.928;-77.052;2023-01-30T06:23:34;101457.84;;;10.73;100.00
6524;BME280;3295;38.928;-77.052;2023-01-30T06:26:05;101432.31;;;10.58;100.00
6524;BME280;3295;38.928;-77.052;2023-01-30T06:28:33;101439.53;;;10.51;100.00
6524;BME280;3295;38.928;-77.052;2023-01-30T06:31:01;101431.78;;;10.49;100.00
6524;BME280;3295;38.928;-77.052;2023-01-30T06:33:29;101408.75;;;10.48;100.00
6524;BME280;3295;38.928;-77.052;2023-01-30T06:35:57;101385.16;;;10.37;100.00
6524;BME280;3295;38.928;-77.052;2023-01-30T06:38:25;101384.59;;;10.28;100.00
6524;BME280;3295;38.928;-77.052;2023-01-30T06:40:53;101378.41;;;10.10;100.00
6524;BME280;3295;38.928;-77.052;2023-01-30T06:43:22;101382.09;;;10.15;100.00
6524;BME280;3295;38.928;-77.052;2023-01-30T06:45:50;101371.84;;;10.28;100.00
6524;BME280;3295;38.928;-77.052;2023-01-30T06:48:18;101346.03;;;10.37;100.00
6524;BME280;3295;38.928;-77.052;2023-01-30T06:50:46;101359.66;;;10.37;100.00
6524;BME280;3295;38.928;-77.052;2023-01-30T06:53:14;101354.56;;;10.37;100.00
6524;BME280;3295;38.928;-77.052;2023-01-30T06:55:42;101377.25;;;10.32;100.00
6524;BME280;3295;38.928;-77.052;2023-01-30T06:58:11;101401.88;;;10.47;100.00
6524;BME280;3295;38.928;-77.052;2023-01-30T07:00:41;101414.28;;;10.55;100.00
6524;BME280;3295;38.928;-77.052;2023-01-30T07:03:10;101416.41;;;10.62;100.00
6524;BME280;3295;38.928;-77.052;2023-01-30T07:05:38;101418.50;;;10.55;100.00
6524;BME280;3295;38.928;-77.052;2023-01-30T07:08:06;101422.44;;;10.35;100.00
6524;BME280;3295;38.928;-77.052;2023-01-30T07:10:34;101424.34;;;10.24;100.00
6524;BME280;3295;38.928;-77.052;2023-01-30T07:13:02;101434.34;;;10.21;100.00
6524;BME280;3295;38.928;-77.052;2023-01-30T07:15:31;101450.13;;;10.16;100.00
6524;BME280;3295;38.928;-77.052;2023-01-30T07:18:00;101452.66;;;10.29;100.00
6524;BME280;3295;38.928;-77.052;2023-01-30T07:20:28;101447.34;;;10.26;100.00
6524;BME280;3295;38.928;-77.052;2023-01-30T07:22:56;101448.78;;;10.21;100.00
6524;BME280;3295;38.928;-77.052;2023-01-30T07:25:25;101453.25;;;10.12;100.00
6524;BME280;3295;38.928;-77.052;2023-01-30T07:27:56;101464.84;;;10.07;100.00
6524;BME280;3295;38.928;-77.052;2023-01-30T07:30:24;101482.31;;;10.01;100.00
6524;BME280;3295;38.928;-77.052;2023-01-30T07:32:53;101499.78;;;9.94;100.00
6524;BME280;3295;38.928;-77.052;2023-01-30T07:35:23;101502.53;;;9.84;100.00
6524;BME280;3295;38.928;-77.052;2023-01-30T07:37:51;101515.44;;;10.01;100.00
6524;BME280;3295;38.928;-77.052;2023-01-30T07:40:20;101522.19;;;10.13;100.00
6524;BME280;3295;38.928;-77.052;2023-01-30T07:42:58;101513.88;;;10.03;100.00
6524;BME280;3295;38.928;-77.052;2023-01-30T07:45:29;101506.44;;;9.92;100.00
6524;BME280;3295;38.928;-77.052;2023-01-30T07:47:58;101491.88;;;9.77;100.00
6524;BME280;3295;38.928;-77.052;2023-01-30T07:50:27;101486.66;;;9.75;100.00
6524;BME280;3295;38.928;-77.052;2023-01-30T07:52:55;101483.44;;;9.78;100.00
6524;BME280;3295;38.928;-77.052;2023-01-30T07:55:23;101476.47;;;9.75;100.00
6524;BME280;3295;38.928;-77.052;2023-01-30T07:57:51;101457.50;;;9.70;100.00
6524;BME280;3295;38.928;-77.052;2023-01-30T08:00:19;101447.31;;;9.70;100.00
6524;BME280;3295;38.928;-77.052;2023-01-30T08:02:47;101433.75;;;9.71;100.00
6524;BME280;3295;38.928;-77.052;2023-01-30T08:05:15;101428.88;;;9.74;100.00
6524;BME280;3295;38.928;-77.052;2023-01-30T08:07:45;101420.16;;;9.84;100.00
6524;BME280;3295;38.928;-77.052;2023-01-30T08:10:13;101396.97;;;9.94;100.00
6524;BME280;3295;38.928;-77.052;2023-01-30T08:12:42;101399.63;;;9.95;100.00
6524;BME280;3295;38.928;-77.052;2023-01-30T08:15:10;101409.97;;;9.98;100.00
6524;BME280;3295;38.928;-77.052;2023-01-30T08:17:38;101411.16;;;10.04;100.00
6524;BME280;3295;38.928;-77.052;2023-01-30T08:20:06;101417.56;;;10.12;100.00
6524;BME280;3295;38.928;-77.052;2023-01-30T08:22:34;101418.19;;;10.21;100.00
6524;BME280;3295;38.928;-77.052;2023-01-30T08:25:04;101415.03;;;10.25;100.00
6524;BME280;3295;38.928;-77.052;2023-01-30T08:27:32;101420.03;;;10.23;100.00
6524;BME280;3295;38.928;-77.052;2023-01-30T08:30:00;101422.31;;;10.19;100.00
6524;BME280;3295;38.928;-77.052;2023-01-30T08:32:28;101421.09;;;10.14;100.00
6524;BME280;3295;38.928;-77.052;2023-01-30T08:34:56;101433.25;;;10.18;100.00
6524;BME280;3295;38.928;-77.052;2023-01-30T08:37:24;101440.16;;;10.19;100.00
6524;BME280;3295;38.928;-77.052;2023-01-30T08:39:52;101455.31;;;10.17;100.00
6524;BME280;3295;38.928;-77.052;2023-01-30T08:42:21;101459.06;;;10.09;100.00
6524;BME280;3295;38.928;-77.052;2023-01-30T08:44:49;101458.59;;;10.02;100.00
6524;BME280;3295;38.928;-77.052;2023-01-30T08:47:17;101464.09;;;9.94;100.00
6524;BME280;3295;38.928;-77.052;2023-01-30T08:49:44;101474.41;;;9.96;100.00
6524;BME280;3295;38.928;-77.052;2023-01-30T08:52:12;101489.84;;;9.99;100.00
6524;BME280;3295;38.928;-77.052;2023-01-30T08:54:40;101484.97;;;10.02;100.00
6524;BME280;3295;38.928;-77.052;2023-01-30T08:57:08;101495.84;;;9.99;100.00
6524;BME280;3295;38.928;-77.052;2023-01-30T08:59:37;101496.25;;;9.92;100.00
6524;BME280;3295;38.928;-77.052;2023-01-30T09:02:07;101484.91;;;9.74;100.00
6524;BME280;3295;38.928;-77.052;2023-01-30T09:04:35;101484.44;;;9.67;100.00
6524;BME280;3295;38.928;-77.052;2023-01-30T09:07:03;101495.41;;;9.66;100.00
6524;BME280;3295;38.928;-77.052;2023-01-30T09:09:31;101491.41;;;9.69;100.00
6524;BME280;3295;38.928;-77.052;2023-01-30T09:11:59;101490.50;;;9.69;100.00
6524;BME280;3295;38.928;-77.052;2023-01-30T09:14:27;101481.59;;;9.62;100.00
6524;BME280;3295;38.928;-77.052;2023-01-30T09:16:56;101485.31;;;9.54;100.00
6524;BME280;3295;38.928;-77.052;2023-01-30T09:19:26;101483.75;;;9.56;100.00
6524;BME280;3295;38.928;-77.052;2023-01-30T09:21:54;101487.09;;;9.55;100.00
6524;BME280;3295;38.928;-77.052;2023-01-30T09:24:22;101483.25;;;9.61;100.00
6524;BME280;3295;38.928;-77.052;2023-01-30T09:26:51;101482.97;;;9.70;100.00
6524;BME280;3295;38.928;-77.052;2023-01-30T09:29:19;101480.69;;;9.75;100.00
6524;BME280;3295;38.928;-77.052;2023-01-30T09:31:47;101484.13;;;9.75;100.00
6524;BME280;3295;38.928;-77.052;2023-01-30T09:34:17;101499.97;;;9.71;100.00
6524;BME280;3295;38.928;-77.052;2023-01-30T09:36:45;101512.66;;;9.70;100.00
6524;BME280;3295;38.928;-77.052;2023-01-30T09:39:12;101512.56;;;9.68;100.00
6524;BME280;3295;38.928;-77.052;2023-01-30T09:41:52;101509.03;;;9.66;100.00
6524;BME280;3295;38.928;-77.052;2023-01-30T09:47:34;101510.69;;;9.66;100.00
6524;BME280;3295;38.928;-77.052;2023-01-30T09:50:31;101511.25;;;9.75;100.00
6524;BME280;3295;38.928;-77.052;2023-01-30T09:53:06;101502.72;;;9.87;100.00
6524;BME280;3295;38.928;-77.052;2023-01-30T09:55:39;101495.75;;;9.85;100.00
6524;BME280;3295;38.928;-77.052;2023-01-30T09:58:15;101497.94;;;9.79;100.00
6524;BME280;3295;38.928;-77.052;2023-01-30T10:00:43;101508.03;;;9.77;100.00
6524;BME280;3295;38.928;-77.052;2023-01-30T10:03:15;101519.00;;;9.76;100.00
6524;BME280;3295;38.928;-77.052;2023-01-30T10:05:48;101521.19;;;9.70;100.00
6524;BME280;3295;38.928;-77.052;2023-01-30T10:08:44;101517.63;;;9.81;100.00
6524;BME280;3295;38.928;-77.052;2023-01-30T10:11:25;101523.31;;;9.90;100.00
6524;BME280;3295;38.928;-77.052;2023-01-30T10:14:13;101515.56;;;9.89;100.00
6524;BME280;3295;38.928;-77.052;2023-01-30T10:16:50;101520.34;;;9.84;100.00
6524;BME280;3295;38.928;-77.052;2023-01-30T10:19:38;101527.44;;;9.75;100.00
6524;BME280;3295;38.928;-77.052;2023-01-30T10:22:19;101518.22;;;9.64;100.00
6524;BME280;3295;38.928;-77.052;2023-01-30T10:25:00;101514.50;;;9.59;100.00
6524;BME280;3295;38.928;-77.052;2023-01-30T10:27:34;101509.41;;;9.46;100.00
6524;BME280;3295;38.928;-77.052;2023-01-30T10:30:05;101494.13;;;9.33;100.00
6524;BME280;3295;38.928;-77.052;2023-01-30T10:32:38;101495.50;;;9.27;100.00
6524;BME280;3295;38.928;-77.052;2023-01-30T10:35:14;101508.81;;;9.37;100.00
6524;BME280;3295;38.928;-77.052;2023-01-30T10:37:50;101504.59;;;9.37;100.00
6524;BME280;3295;38.928;-77.052;2023-01-30T10:40:24;101496.97;;;9.37;100.00
6524;BME280;3295;38.928;-77.052;2023-01-30T10:43:00;101496.88;;;9.49;100.00
6524;BME280;3295;38.928;-77.052;2023-01-30T10:45:35;101491.00;;;9.63;100.00
6524;BME280;3295;38.928;-77.052;2023-01-30T10:48:22;101490.41;;;9.80;100.00
6524;BME280;3295;38.928;-77.052;2023-01-30T10:50:57;101479.59;;;9.84;100.00
6524;BME280;3295;38.928;-77.052;2023-01-30T10:53:30;101477.75;;;9.82;100.00
6524;BME280;3295;38.928;-77.052;2023-01-30T10:56:07;101479.59;;;9.84;100.00
6524;BME280;3295;38.928;-77.052;2023-01-30T10:58:43;101472.66;;;9.82;100.00
6524;BME280;3295;38.928;-77.052;2023-01-30T11:01:20;101463.53;;;9.72;100.00
6524;BME280;3295;38.928;-77.052;2023-01-30T11:03:54;101453.00;;;9.66;100.00
6524;BME280;3295;38.928;-77.052;2023-01-30T11:06:24;101426.06;;;9.56;100.00
6524;BME280;3295;38.928;-77.052;2023-01-30T11:08:54;101411.88;;;9.47;100.00
6524;BME280;3295;38.928;-77.052;2023-01-30T11:11:25;101396.38;;;9.44;100.00
6524;BME280;3295;38.928;-77.052;2023-01-30T11:14:01;101409.53;;;9.37;100.00
6524;BME280;3295;38.928;-77.052;2023-01-30T11:16:30;101418.16;;;9.39;100.00
6524;BME280;3295;38.928;-77.052;2023-01-30T11:19:04;101422.94;;;9.47;100.00
6524;BME280;3295;38.928;-77.052;2023-01-30T11:21:32;101439.88;;;9.60;100.00
6524;BME280;3295;38.928;-77.052;2023-01-30T11:24:12;101446.78;;;9.76;100.00
6524;BME280;3295;38.928;-77.052;2023-01-30T11:26:42;101444.22;;;9.89;100.00
6524;BME280;3295;38.928;-77.052;2023-01-30T11:29:31;101443.75;;;9.81;100.00
6524;BME280;3295;38.928;-77.052;2023-01-30T11:32:02;101435.16;;;9.66;100.00
6524;BME280;3295;38.928;-77.052;2023-01-30T11:34:31;101442.22;;;9.57;100.00
6524;BME280;3295;38.928;-77.052;2023-01-30T11:37:17;101456.69;;;9.58;100.00
6524;BME280;3295;38.928;-77.052;2023-01-30T11:39:52;101455.66;;;9.54;100.00
6524;BME280;3295;38.928;-77.052;2023-01-30T11:42:27;101444.28;;;9.62;100.00
6524;BME280;3295;38.928;-77.052;2023-01-30T11:44:58;101441.06;;;9.52;100.00
6524;BME280;3295;38.928;-77.052;2023-01-30T11:47:27;101443.41;;;9.49;100.00
6524;BME280;3295;38.928;-77.052;2023-01-30T11:49:57;101442.22;;;9.44;100.00
6524;BME280;3295;38.928;-77.052;2023-01-30T11:52:29;101447.63;;;9.48;100.00
6524;BME280;3295;38.928;-77.052;2023-01-30T11:55:02;101451.22;;;9.65;100.00
6524;BME280;3295;38.928;-77.052;2023-01-30T11:57:39;101451.88;;;9.76;100.00
6524;BME280;3295;38.928;-77.052;2023-01-30T12:00:15;101456.31;;;9.78;100.00
6524;BME280;3295;38.928;-77.052;2023-01-30T12:02:44;101452.22;;;9.67;100.00
6524;BME280;3295;38.928;-77.052;2023-01-30T12:05:23;101454.66;;;9.52;100.00
6524;BME280;3295;38.928;-77.052;2023-01-30T12:07:52;101456.13;;;9.49;100.00
6524;BME280;3295;38.928;-77.052;2023-01-30T12:10:29;101458.47;;;9.59;100.00
6524;BME280;3295;38.928;-77.052;2023-01-30T12:13:00;101434.75;;;9.60;100.00
6524;BME280;3295;38.928;-77.052;2023-01-30T12:15:31;101467.50;;;9.54;100.00
6524;BME280;3295;38.928;-77.052;2023-01-30T12:18:05;101470.44;;;9.47;100.00
6524;BME280;3295;38.928;-77.052;2023-01-30T12:20:45;101482.78;;;9.54;100.00
6524;BME280;3295;38.928;-77.052;2023-01-30T12:23:19;101481.00;;;9.66;100.00
6524;BME280;3295;38.928;-77.052;2023-01-30T12:25:57;101462.41;;;9.67;100.00
6524;BME280;3295;38.928;-77.052;2023-01-30T12:28:34;101482.88;;;9.55;100.00
6524;BME280;3295;38.928;-77.052;2023-01-30T12:31:08;101487.09;;;9.55;100.00
6524;BME280;3295;38.928;-77.052;2023-01-30T12:33:38;101479.81;;;9.61;100.00
6524;BME280;3295;38.928;-77.052;2023-01-30T12:36:15;101498.25;;;9.70;100.00
6524;BME280;3295;38.928;-77.052;2023-01-30T12:38:56;101503.13;;;9.80;100.00
6524;BME280;3295;38.928;-77.052;2023-01-30T12:41:39;101510.66;;;9.92;100.00
6524;BME280;3295;38.928;-77.052;2023-01-30T12:44:29;101500.34;;;10.04;100.00
6524;BME280;3295;38.928;-77.052;2023-01-30T12:47:18;101502.41;;;10.09;100.00
6524;BME280;3295;38.928;-77.052;2023-01-30T12:50:10;101520.94;;;10.07;100.00
6524;BME280;3295;38.928;-77.052;2023-01-30T12:55:42;101516.91;;;10.10;100.00
6524;BME280;3295;38.928;-77.052;2023-01-30T12:58:19;101509.16;;;10.09;100.00
6524;BME280;3295;38.928;-77.052;2023-01-30T13:01:04;101506.13;;;10.01;100.00
6524;BME280;3295;38.928;-77.052;2023-01-30T13:03:37;101503.50;;;9.86;100.00
6524;BME280;3295;38.928;-77.052;2023-01-30T13:06:22;101500.59;;;9.80;100.00
6524;BME280;3295;38.928;-77.052;2023-01-30T13:09:10;101515.47;;;9.74;100.00
6524;BME280;3295;38.928;-77.052;2023-01-30T13:11:47;101522.91;;;9.84;100.00
6524;BME280;3295;38.928;-77.052;2023-01-30T13:14:25;101521.16;;;9.96;100.00
6524;BME280;3295;38.928;-77.052;2023-01-30T13:17:01;101535.34;;;10.06;100.00